Terminal Aerodrome Forecast
Issued by NWS Rapid City, SD

Home | Current Version | Previous Version | Graphics & Text | Print | Product List | Glossary On
Versions: 1 2 3 4 5 6 7 8 9 10 11 12 13 14 15 16
684
FTUS43 KUNR 222320
TAFRAP
TAF
KRAP 222320Z 2300/2324 25009KT P6SM SCT250
     FM230300 33011KT P6SM SCT250
     FM231300 33025G38KT P6SM SCT250
     FM232000 35018G28KT P6SM SCT250=

USA.gov is the U.S. government's official web portal to all federal, state and local government web resources and services.